Share

Sebastopol, MS (39359)

Key (KMEI) Elev 308 ft | 32.33 °N, 88.75 °W | Change Station

Current weather conditions updated 38 minutes ago

Scattered Clouds
Scattered Clouds
67 °F
Feels Like 67 °F
N
8
Wind Variable Wind from East
Sunrise 6:25 AM
Sunset 7:28 PM
Moon Waning Gibbous

Today is forecast to be nearly the same temperature as yesterday. .

Pressure 30.21 in
Visibility 10.0 miles
Clouds Scattered Clouds 6000 ft
Dew Point 48 °F
Humidity 51%
Rainfall 0.00 in
Snow Depth Not available.
UV 7 out of 16
Pollen 8.50 out of 12
Air Quality Not available.
Flu Activity No Activity
METAR KMEI 171958Z 10007KT 10SM SCT060 19/09 A3021 RMK AO2 SLP229 T01940089

More Conditions Fewer Conditions

Pressure 30.21 in
Visibility 10.0 miles
Clouds Scattered Clouds 6000 ft
Dew Point 48 °F
Humidity 51%
Rainfall 0.00 in
Snow Depth Not available.
UV 7 out of 16
Pollen 8.50 out of 12
Air Quality Not available.
Flu Activity No Activity
METAR KMEI 171958Z 10007KT 10SM SCT060 19/09 A3021 RMK AO2 SLP229 T01940089

More Conditions Fewer Conditions

10-Day Forecast

Almanac

Astronomy

Apr. 17, 2014 Rise Set
Actual Time 6:25 AM CDT 7:28 PM CDT
Civil Twilight 6:00 AM CDT 7:54 PM CDT
Nautical Twilight 5:30 AM CDT 8:24 PM CDT
Astronomical Twilight 4:59 AM CDT 8:55 PM CDT
Moon 10:07 PM CDT 8:03 AM CDT
Length of Visible Light 13h 53m
Length of Day
13h 03m
Tomorrow will be 1m 53s longer.
Waning Gibbous, 93% of the Moon is Illuminated
Today
Waning Gibbous
Apr 22
Last Quarter
Apr 29
New
May 6
First Quarter
May 14
Full

Today's Extremes

State Highs State Lows

Community

  • Morning Light
    Morning Light
  • New Day
    New Day
  • Lake Michigan Sunrise
    Lake Michigan Sunrise
  • sunset from izmir, narlıdere
    sunset from izmir, narlıdere
  • oregon cherry
    oregon cherry

WunderPhotos

Upload Photos

1,702,123 photos uploaded!

Nearby

Snow Depth

Station Depth Elevation
No new snow has been reported.

Coastal Water Temperatures

Place Temperature
No Stations Reporting

Earthquake Activity

City Distance Mag. Time & Date
No recent earthquake activity has been reported nearby.
Minimum magnitude displayed is 2.5.

Nearby Weather Stations

Station Location Temp. Dew Point Humidity Wind Precip. Elev Updated Type
RAWS NESHOBA MS, Philadelphia, MS 68 °F 48 °F 48% East  at  7 mph 0.00 in / hr 458 ft 2:13 PM CDT MADIS
RAWS BIENVILLE MS, Forest, MS 68 °F 49 °F 51% ESE  at  7 mph 0.00 in / hr 470 ft 2:06 PM CDT MADIS

Show More Stations Show Fewer Stations

What do you think?

We're not finished. Please let us know what you like, what you don't like, and what you are still missing.